sensor_id;sensor_type;location;lat;lon;timestamp;P1;durP1;ratioP1;P2;durP2;ratioP2
25199;SDS011;33094;48.782;9.162;2023-04-27T00:00:40;11.02;;;4.88;;
25199;SDS011;33094;48.782;9.162;2023-04-27T00:05:45;11.27;;;5.03;;
25199;SDS011;33094;48.782;9.162;2023-04-27T00:08:12;7.38;;;4.20;;
25199;SDS011;33094;48.782;9.162;2023-04-27T00:10:38;8.73;;;4.80;;
25199;SDS011;33094;48.782;9.162;2023-04-27T00:13:07;11.53;;;4.77;;
25199;SDS011;33094;48.782;9.162;2023-04-27T00:15:34;13.52;;;4.95;;
25199;SDS011;33094;48.782;9.162;2023-04-27T00:18:00;13.82;;;5.90;;
25199;SDS011;33094;48.782;9.162;2023-04-27T00:20:26;11.07;;;5.40;;
25199;SDS011;33094;48.782;9.162;2023-04-27T00:22:52;15.35;;;5.15;;
25199;SDS011;33094;48.782;9.162;2023-04-27T00:25:18;12.20;;;5.32;;
25199;SDS011;33094;48.782;9.162;2023-04-27T00:33:10;16.92;;;5.95;;
25199;SDS011;33094;48.782;9.162;2023-04-27T00:35:36;11.23;;;6.25;;
25199;SDS011;33094;48.782;9.162;2023-04-27T00:43:14;17.15;;;7.80;;
25199;SDS011;33094;48.782;9.162;2023-04-27T00:50:51;13.65;;;6.63;;
25199;SDS011;33094;48.782;9.162;2023-04-27T00:53:21;22.42;;;7.82;;
25199;SDS011;33094;48.782;9.162;2023-04-27T01:03:37;16.20;;;7.55;;
25199;SDS011;33094;48.782;9.162;2023-04-27T01:08:38;14.68;;;7.25;;
25199;SDS011;33094;48.782;9.162;2023-04-27T01:11:06;15.10;;;6.82;;
25199;SDS011;33094;48.782;9.162;2023-04-27T01:16:07;16.02;;;7.47;;
25199;SDS011;33094;48.782;9.162;2023-04-27T01:21:11;12.63;;;6.90;;
25199;SDS011;33094;48.782;9.162;2023-04-27T01:23:39;11.88;;;6.82;;
25199;SDS011;33094;48.782;9.162;2023-04-27T01:26:06;10.93;;;7.38;;
25199;SDS011;33094;48.782;9.162;2023-04-27T01:31:11;15.05;;;8.38;;
25199;SDS011;33094;48.782;9.162;2023-04-27T01:33:39;20.70;;;7.07;;
25199;SDS011;33094;48.782;9.162;2023-04-27T01:36:07;18.08;;;6.80;;
25199;SDS011;33094;48.782;9.162;2023-04-27T01:38:34;15.30;;;6.68;;
25199;SDS011;33094;48.782;9.162;2023-04-27T01:41:03;11.38;;;6.18;;
25199;SDS011;33094;48.782;9.162;2023-04-27T01:43:33;11.18;;;6.13;;
25199;SDS011;33094;48.782;9.162;2023-04-27T01:46:10;15.70;;;5.95;;
25199;SDS011;33094;48.782;9.162;2023-04-27T01:51:06;9.57;;;5.32;;
25199;SDS011;33094;48.782;9.162;2023-04-27T01:53:32;20.70;;;5.72;;
25199;SDS011;33094;48.782;9.162;2023-04-27T01:55:59;10.48;;;5.53;;
25199;SDS011;33094;48.782;9.162;2023-04-27T01:58:25;8.85;;;5.38;;
25199;SDS011;33094;48.782;9.162;2023-04-27T02:00:52;11.60;;;5.05;;
25199;SDS011;33094;48.782;9.162;2023-04-27T02:03:18;9.77;;;5.35;;
25199;SDS011;33094;48.782;9.162;2023-04-27T02:05:46;10.75;;;5.85;;
25199;SDS011;33094;48.782;9.162;2023-04-27T02:08:12;7.57;;;5.07;;
25199;SDS011;33094;48.782;9.162;2023-04-27T02:13:05;13.82;;;5.55;;
25199;SDS011;33094;48.782;9.162;2023-04-27T02:15:32;15.77;;;6.43;;
25199;SDS011;33094;48.782;9.162;2023-04-27T02:18:00;15.15;;;6.45;;
25199;SDS011;33094;48.782;9.162;2023-04-27T02:20:44;12.75;;;6.75;;
25199;SDS011;33094;48.782;9.162;2023-04-27T02:25:45;18.70;;;7.60;;
25199;SDS011;33094;48.782;9.162;2023-04-27T02:30:47;16.63;;;6.60;;
25199;SDS011;33094;48.782;9.162;2023-04-27T02:38:24;12.48;;;7.15;;
25199;SDS011;33094;48.782;9.162;2023-04-27T02:40:55;17.88;;;7.60;;
25199;SDS011;33094;48.782;9.162;2023-04-27T02:43:27;13.95;;;7.43;;
25199;SDS011;33094;48.782;9.162;2023-04-27T02:51:05;14.40;;;6.78;;
25199;SDS011;33094;48.782;9.162;2023-04-27T03:01:18;13.57;;;7.32;;
25199;SDS011;33094;48.782;9.162;2023-04-27T03:08:55;16.35;;;7.18;;
25199;SDS011;33094;48.782;9.162;2023-04-27T03:11:21;13.00;;;6.72;;
25199;SDS011;33094;48.782;9.162;2023-04-27T03:16:25;17.95;;;6.68;;
25199;SDS011;33094;48.782;9.162;2023-04-27T03:18:51;18.85;;;6.78;;
25199;SDS011;33094;48.782;9.162;2023-04-27T03:21:18;19.03;;;6.83;;
25199;SDS011;33094;48.782;9.162;2023-04-27T03:23:44;14.00;;;7.22;;
25199;SDS011;33094;48.782;9.162;2023-04-27T03:26:11;18.30;;;7.78;;
25199;SDS011;33094;48.782;9.162;2023-04-27T03:28:38;14.18;;;6.80;;
25199;SDS011;33094;48.782;9.162;2023-04-27T03:31:04;10.25;;;7.28;;
25199;SDS011;33094;48.782;9.162;2023-04-27T03:33:35;12.45;;;7.30;;
25199;SDS011;33094;48.782;9.162;2023-04-27T03:36:02;11.68;;;7.47;;
25199;SDS011;33094;48.782;9.162;2023-04-27T03:41:04;13.00;;;7.82;;
25199;SDS011;33094;48.782;9.162;2023-04-27T03:46:06;13.23;;;8.45;;
25199;SDS011;33094;48.782;9.162;2023-04-27T03:48:33;18.75;;;8.73;;
25199;SDS011;33094;48.782;9.162;2023-04-27T03:51:01;13.65;;;8.57;;
25199;SDS011;33094;48.782;9.162;2023-04-27T04:01:13;14.55;;;8.00;;
25199;SDS011;33094;48.782;9.162;2023-04-27T04:08:42;15.05;;;8.60;;
25199;SDS011;33094;48.782;9.162;2023-04-27T04:24:06;13.50;;;8.03;;
25199;SDS011;33094;48.782;9.162;2023-04-27T04:26:36;14.40;;;8.05;;
25199;SDS011;33094;48.782;9.162;2023-04-27T04:29:04;15.75;;;8.85;;
25199;SDS011;33094;48.782;9.162;2023-04-27T04:31:34;15.38;;;9.40;;
25199;SDS011;33094;48.782;9.162;2023-04-27T04:34:00;17.23;;;9.27;;
25199;SDS011;33094;48.782;9.162;2023-04-27T04:36:27;20.90;;;9.15;;
25199;SDS011;33094;48.782;9.162;2023-04-27T04:38:55;14.45;;;8.60;;
25199;SDS011;33094;48.782;9.162;2023-04-27T04:41:22;15.70;;;8.20;;
25199;SDS011;33094;48.782;9.162;2023-04-27T04:49:03;22.13;;;9.43;;
25199;SDS011;33094;48.782;9.162;2023-04-27T04:53:56;19.38;;;9.60;;
25199;SDS011;33094;48.782;9.162;2023-04-27T04:56:22;23.17;;;9.90;;
25199;SDS011;33094;48.782;9.162;2023-04-27T05:01:23;17.58;;;9.50;;
25199;SDS011;33094;48.782;9.162;2023-04-27T05:03:52;15.80;;;9.77;;
25199;SDS011;33094;48.782;9.162;2023-04-27T05:06:19;13.45;;;8.20;;
25199;SDS011;33094;48.782;9.162;2023-04-27T05:08:47;16.02;;;9.35;;
25199;SDS011;33094;48.782;9.162;2023-04-27T05:24:05;13.68;;;7.93;;
25199;SDS011;33094;48.782;9.162;2023-04-27T05:26:31;11.95;;;7.88;;
25199;SDS011;33094;48.782;9.162;2023-04-27T05:28:57;13.02;;;8.38;;
25199;SDS011;33094;48.782;9.162;2023-04-27T05:31:22;16.38;;;9.13;;
25199;SDS011;33094;48.782;9.162;2023-04-27T05:33:48;23.13;;;9.80;;
25199;SDS011;33094;48.782;9.162;2023-04-27T05:36:13;23.48;;;9.63;;
25199;SDS011;33094;48.782;9.162;2023-04-27T05:38:39;25.10;;;9.63;;
25199;SDS011;33094;48.782;9.162;2023-04-27T05:41:05;18.63;;;9.13;;
25199;SDS011;33094;48.782;9.162;2023-04-27T05:43:31;13.60;;;8.82;;
25199;SDS011;33094;48.782;9.162;2023-04-27T05:45:58;20.17;;;9.38;;
25199;SDS011;33094;48.782;9.162;2023-04-27T05:48:24;19.08;;;9.32;;
25199;SDS011;33094;48.782;9.162;2023-04-27T05:51:00;16.60;;;8.65;;
25199;SDS011;33094;48.782;9.162;2023-04-27T05:53:26;17.98;;;8.90;;
25199;SDS011;33094;48.782;9.162;2023-04-27T05:55:52;14.32;;;8.73;;
25199;SDS011;33094;48.782;9.162;2023-04-27T05:58:18;14.10;;;7.85;;
25199;SDS011;33094;48.782;9.162;2023-04-27T06:00:43;13.82;;;8.70;;
25199;SDS011;33094;48.782;9.162;2023-04-27T06:03:09;17.40;;;8.25;;
25199;SDS011;33094;48.782;9.162;2023-04-27T06:05:34;13.70;;;8.23;;
25199;SDS011;33094;48.782;9.162;2023-04-27T06:08:00;20.45;;;9.20;;
25199;SDS011;33094;48.782;9.162;2023-04-27T06:10:26;24.55;;;8.50;;
25199;SDS011;33094;48.782;9.162;2023-04-27T06:12:51;33.25;;;10.20;;
25199;SDS011;33094;48.782;9.162;2023-04-27T06:15:17;22.65;;;8.82;;
25199;SDS011;33094;48.782;9.162;2023-04-27T06:17:42;17.15;;;9.95;;
25199;SDS011;33094;48.782;9.162;2023-04-27T06:20:08;22.02;;;9.93;;
25199;SDS011;33094;48.782;9.162;2023-04-27T06:22:34;19.20;;;10.20;;
25199;SDS011;33094;48.782;9.162;2023-04-27T06:25:03;18.10;;;9.60;;
25199;SDS011;33094;48.782;9.162;2023-04-27T06:27:29;15.85;;;9.70;;
25199;SDS011;33094;48.782;9.162;2023-04-27T06:29:55;15.40;;;9.15;;
25199;SDS011;33094;48.782;9.162;2023-04-27T06:32:21;16.70;;;8.55;;
25199;SDS011;33094;48.782;9.162;2023-04-27T06:34:47;15.05;;;9.30;;
25199;SDS011;33094;48.782;9.162;2023-04-27T06:37:14;14.60;;;8.70;;
25199;SDS011;33094;48.782;9.162;2023-04-27T06:39:42;16.77;;;9.52;;
25199;SDS011;33094;48.782;9.162;2023-04-27T06:42:07;16.23;;;9.60;;
25199;SDS011;33094;48.782;9.162;2023-04-27T06:44:33;15.32;;;8.75;;
25199;SDS011;33094;48.782;9.162;2023-04-27T06:46:59;15.18;;;9.25;;
25199;SDS011;33094;48.782;9.162;2023-04-27T06:49:24;20.60;;;10.07;;
25199;SDS011;33094;48.782;9.162;2023-04-27T06:51:50;17.55;;;9.93;;
25199;SDS011;33094;48.782;9.162;2023-04-27T06:54:16;18.75;;;9.15;;
25199;SDS011;33094;48.782;9.162;2023-04-27T06:56:42;23.70;;;10.38;;
25199;SDS011;33094;48.782;9.162;2023-04-27T06:59:08;13.57;;;9.77;;
25199;SDS011;33094;48.782;9.162;2023-04-27T07:01:35;21.77;;;10.13;;
25199;SDS011;33094;48.782;9.162;2023-04-27T07:04:02;19.53;;;9.73;;
25199;SDS011;33094;48.782;9.162;2023-04-27T07:06:28;18.80;;;10.00;;
25199;SDS011;33094;48.782;9.162;2023-04-27T07:08:55;21.17;;;10.30;;
25199;SDS011;33094;48.782;9.162;2023-04-27T07:11:20;21.08;;;10.70;;
25199;SDS011;33094;48.782;9.162;2023-04-27T07:13:46;17.13;;;10.25;;
25199;SDS011;33094;48.782;9.162;2023-04-27T07:16:12;21.42;;;10.38;;
25199;SDS011;33094;48.782;9.162;2023-04-27T07:18:37;16.45;;;9.65;;
25199;SDS011;33094;48.782;9.162;2023-04-27T07:21:03;23.23;;;10.70;;
25199;SDS011;33094;48.782;9.162;2023-04-27T07:23:28;16.15;;;9.73;;
25199;SDS011;33094;48.782;9.162;2023-04-27T07:25:54;23.33;;;10.77;;
25199;SDS011;33094;48.782;9.162;2023-04-27T07:28:20;12.52;;;9.25;;
25199;SDS011;33094;48.782;9.162;2023-04-27T07:30:46;20.35;;;10.75;;
25199;SDS011;33094;48.782;9.162;2023-04-27T07:33:11;20.17;;;10.27;;
25199;SDS011;33094;48.782;9.162;2023-04-27T07:35:37;17.67;;;10.10;;
25199;SDS011;33094;48.782;9.162;2023-04-27T07:38:03;22.90;;;10.80;;
25199;SDS011;33094;48.782;9.162;2023-04-27T07:40:29;15.43;;;10.60;;
25199;SDS011;33094;48.782;9.162;2023-04-27T07:42:56;17.33;;;9.50;;
25199;SDS011;33094;48.782;9.162;2023-04-27T07:45:22;15.48;;;9.32;;
25199;SDS011;33094;48.782;9.162;2023-04-27T07:47:55;19.38;;;9.95;;
25199;SDS011;33094;48.782;9.162;2023-04-27T07:50:22;25.38;;;10.75;;
25199;SDS011;33094;48.782;9.162;2023-04-27T07:52:49;27.70;;;9.90;;
25199;SDS011;33094;48.782;9.162;2023-04-27T07:55:15;19.23;;;10.03;;
25199;SDS011;33094;48.782;9.162;2023-04-27T07:57:41;29.40;;;10.90;;
25199;SDS011;33094;48.782;9.162;2023-04-27T08:00:07;18.52;;;9.65;;
25199;SDS011;33094;48.782;9.162;2023-04-27T08:02:35;15.10;;;8.98;;
25199;SDS011;33094;48.782;9.162;2023-04-27T08:05:00;27.15;;;9.80;;
25199;SDS011;33094;48.782;9.162;2023-04-27T08:07:26;29.38;;;10.32;;
25199;SDS011;33094;48.782;9.162;2023-04-27T08:09:52;19.10;;;6.97;;
25199;SDS011;33094;48.782;9.162;2023-04-27T08:12:18;23.80;;;8.00;;
25199;SDS011;33094;48.782;9.162;2023-04-27T08:14:44;10.73;;;6.88;;
25199;SDS011;33094;48.782;9.162;2023-04-27T08:17:10;13.10;;;7.75;;
25199;SDS011;33094;48.782;9.162;2023-04-27T08:19:36;11.17;;;6.60;;
25199;SDS011;33094;48.782;9.162;2023-04-27T08:22:02;13.93;;;6.78;;
25199;SDS011;33094;48.782;9.162;2023-04-27T08:24:27;11.07;;;6.20;;
25199;SDS011;33094;48.782;9.162;2023-04-27T08:26:53;13.03;;;6.00;;
25199;SDS011;33094;48.782;9.162;2023-04-27T08:29:19;12.33;;;6.40;;
25199;SDS011;33094;48.782;9.162;2023-04-27T08:31:45;9.52;;;5.25;;
25199;SDS011;33094;48.782;9.162;2023-04-27T08:34:11;10.70;;;5.75;;
25199;SDS011;33094;48.782;9.162;2023-04-27T08:36:36;9.30;;;5.13;;
25199;SDS011;33094;48.782;9.162;2023-04-27T08:39:02;8.30;;;5.80;;
25199;SDS011;33094;48.782;9.162;2023-04-27T08:41:31;10.27;;;5.80;;
25199;SDS011;33094;48.782;9.162;2023-04-27T08:43:57;13.80;;;5.70;;
25199;SDS011;33094;48.782;9.162;2023-04-27T08:46:23;9.55;;;5.53;;
25199;SDS011;33094;48.782;9.162;2023-04-27T08:48:52;8.75;;;4.85;;
25199;SDS011;33094;48.782;9.162;2023-04-27T08:51:18;9.45;;;5.47;;
25199;SDS011;33094;48.782;9.162;2023-04-27T08:53:51;12.05;;;5.32;;
25199;SDS011;33094;48.782;9.162;2023-04-27T08:56:18;13.48;;;5.47;;
25199;SDS011;33094;48.782;9.162;2023-04-27T08:58:47;20.48;;;5.35;;
25199;SDS011;33094;48.782;9.162;2023-04-27T09:01:13;10.27;;;5.45;;
25199;SDS011;33094;48.782;9.162;2023-04-27T09:03:40;11.88;;;5.97;;
25199;SDS011;33094;48.782;9.162;2023-04-27T09:06:06;9.75;;;5.00;;
25199;SDS011;33094;48.782;9.162;2023-04-27T09:08:45;7.80;;;5.18;;
25199;SDS011;33094;48.782;9.162;2023-04-27T09:11:13;11.73;;;5.97;;
25199;SDS011;33094;48.782;9.162;2023-04-27T09:14:00;8.65;;;5.03;;
25199;SDS011;33094;48.782;9.162;2023-04-27T09:16:27;14.90;;;5.70;;
25199;SDS011;33094;48.782;9.162;2023-04-27T09:18:55;10.15;;;5.63;;
25199;SDS011;33094;48.782;9.162;2023-04-27T09:21:30;11.90;;;6.03;;
25199;SDS011;33094;48.782;9.162;2023-04-27T09:23:56;9.90;;;5.68;;
25199;SDS011;33094;48.782;9.162;2023-04-27T09:26:23;11.40;;;5.70;;
25199;SDS011;33094;48.782;9.162;2023-04-27T09:28:51;9.85;;;5.40;;
25199;SDS011;33094;48.782;9.162;2023-04-27T09:31:18;8.95;;;5.15;;
25199;SDS011;33094;48.782;9.162;2023-04-27T09:33:44;11.38;;;6.53;;
25199;SDS011;33094;48.782;9.162;2023-04-27T09:41:03;8.15;;;5.15;;
25199;SDS011;33094;48.782;9.162;2023-04-27T09:43:29;8.07;;;5.25;;
25199;SDS011;33094;48.782;9.162;2023-04-27T09:45:55;9.45;;;5.20;;
25199;SDS011;33094;48.782;9.162;2023-04-27T09:48:23;8.68;;;4.78;;
25199;SDS011;33094;48.782;9.162;2023-04-27T09:50:49;11.35;;;5.38;;
25199;SDS011;33094;48.782;9.162;2023-04-27T09:53:17;14.60;;;5.40;;
25199;SDS011;33094;48.782;9.162;2023-04-27T09:55:49;8.45;;;5.18;;
25199;SDS011;33094;48.782;9.162;2023-04-27T09:58:35;7.25;;;5.03;;
25199;SDS011;33094;48.782;9.162;2023-04-27T10:01:33;8.57;;;5.30;;
25199;SDS011;33094;48.782;9.162;2023-04-27T10:09:21;14.80;;;5.65;;
25199;SDS011;33094;48.782;9.162;2023-04-27T10:11:48;8.60;;;4.95;;
25199;SDS011;33094;48.782;9.162;2023-04-27T10:14:15;7.82;;;4.55;;
25199;SDS011;33094;48.782;9.162;2023-04-27T10:16:50;11.25;;;5.05;;
25199;SDS011;33094;48.782;9.162;2023-04-27T10:19:16;7.78;;;4.85;;
25199;SDS011;33094;48.782;9.162;2023-04-27T10:22:00;13.25;;;4.95;;
25199;SDS011;33094;48.782;9.162;2023-04-27T10:24:32;6.03;;;4.93;;
25199;SDS011;33094;48.782;9.162;2023-04-27T10:27:06;8.55;;;4.72;;
25199;SDS011;33094;48.782;9.162;2023-04-27T10:29:44;10.13;;;5.20;;
25199;SDS011;33094;48.782;9.162;2023-04-27T10:34:49;12.70;;;4.85;;
25199;SDS011;33094;48.782;9.162;2023-04-27T10:37:37;8.93;;;5.13;;
25199;SDS011;33094;48.782;9.162;2023-04-27T10:40:06;11.48;;;5.25;;
25199;SDS011;33094;48.782;9.162;2023-04-27T10:42:39;14.95;;;5.82;;
25199;SDS011;33094;48.782;9.162;2023-04-27T10:45:06;7.20;;;5.38;;
25199;SDS011;33094;48.782;9.162;2023-04-27T10:47:42;7.93;;;5.32;;
25199;SDS011;33094;48.782;9.162;2023-04-27T10:50:09;11.60;;;5.68;;
25199;SDS011;33094;48.782;9.162;2023-04-27T10:52:41;12.30;;;5.30;;
25199;SDS011;33094;48.782;9.162;2023-04-27T10:55:13;8.93;;;5.32;;
25199;SDS011;33094;48.782;9.162;2023-04-27T11:00:37;6.47;;;5.75;;
25199;SDS011;33094;48.782;9.162;2023-04-27T11:03:15;12.57;;;6.00;;
25199;SDS011;33094;48.782;9.162;2023-04-27T11:05:44;8.70;;;5.72;;
25199;SDS011;33094;48.782;9.162;2023-04-27T11:08:11;13.10;;;6.25;;
25199;SDS011;33094;48.782;9.162;2023-04-27T11:10:39;8.50;;;5.55;;
25199;SDS011;33094;48.782;9.162;2023-04-27T11:13:08;10.50;;;5.30;;
25199;SDS011;33094;48.782;9.162;2023-04-27T11:15:42;8.90;;;4.70;;
25199;SDS011;33094;48.782;9.162;2023-04-27T11:18:08;9.95;;;4.68;;
25199;SDS011;33094;48.782;9.162;2023-04-27T11:20:34;9.10;;;5.40;;
25199;SDS011;33094;48.782;9.162;2023-04-27T11:23:00;6.90;;;5.20;;
25199;SDS011;33094;48.782;9.162;2023-04-27T11:25:26;8.50;;;5.60;;
25199;SDS011;33094;48.782;9.162;2023-04-27T11:27:52;11.93;;;5.90;;
25199;SDS011;33094;48.782;9.162;2023-04-27T11:30:19;14.50;;;5.40;;
25199;SDS011;33094;48.782;9.162;2023-04-27T11:32:46;11.30;;;5.97;;
25199;SDS011;33094;48.782;9.162;2023-04-27T11:35:12;10.82;;;5.75;;
25199;SDS011;33094;48.782;9.162;2023-04-27T11:37:38;12.02;;;5.07;;
25199;SDS011;33094;48.782;9.162;2023-04-27T11:40:03;7.13;;;5.57;;
25199;SDS011;33094;48.782;9.162;2023-04-27T11:42:29;9.70;;;5.35;;
25199;SDS011;33094;48.782;9.162;2023-04-27T11:45:13;11.87;;;5.50;;
25199;SDS011;33094;48.782;9.162;2023-04-27T11:47:39;8.55;;;5.57;;
25199;SDS011;33094;48.782;9.162;2023-04-27T11:50:11;9.48;;;5.78;;
25199;SDS011;33094;48.782;9.162;2023-04-27T11:52:37;12.70;;;6.47;;
25199;SDS011;33094;48.782;9.162;2023-04-27T11:55:04;9.48;;;5.90;;
25199;SDS011;33094;48.782;9.162;2023-04-27T11:57:39;8.45;;;5.38;;
25199;SDS011;33094;48.782;9.162;2023-04-27T12:00:05;9.32;;;5.22;;
25199;SDS011;33094;48.782;9.162;2023-04-27T12:02:35;8.93;;;5.65;;
25199;SDS011;33094;48.782;9.162;2023-04-27T12:05:02;9.15;;;5.68;;
25199;SDS011;33094;48.782;9.162;2023-04-27T12:07:29;9.57;;;5.55;;
25199;SDS011;33094;48.782;9.162;2023-04-27T12:09:54;7.60;;;5.83;;
25199;SDS011;33094;48.782;9.162;2023-04-27T12:12:20;9.93;;;6.10;;
25199;SDS011;33094;48.782;9.162;2023-04-27T12:14:47;11.13;;;5.90;;
25199;SDS011;33094;48.782;9.162;2023-04-27T12:17:13;8.77;;;5.60;;
25199;SDS011;33094;48.782;9.162;2023-04-27T12:19:38;10.03;;;5.67;;
25199;SDS011;33094;48.782;9.162;2023-04-27T12:22:04;8.57;;;5.60;;
25199;SDS011;33094;48.782;9.162;2023-04-27T12:24:30;10.00;;;5.55;;
25199;SDS011;33094;48.782;9.162;2023-04-27T12:26:56;13.90;;;6.47;;
25199;SDS011;33094;48.782;9.162;2023-04-27T12:29:22;6.63;;;5.75;;
25199;SDS011;33094;48.782;9.162;2023-04-27T12:31:48;12.90;;;6.20;;
25199;SDS011;33094;48.782;9.162;2023-04-27T12:34:14;11.63;;;5.90;;
25199;SDS011;33094;48.782;9.162;2023-04-27T12:36:40;8.80;;;5.75;;
25199;SDS011;33094;48.782;9.162;2023-04-27T12:41:48;12.68;;;5.88;;
25199;SDS011;33094;48.782;9.162;2023-04-27T12:44:14;6.80;;;5.47;;
25199;SDS011;33094;48.782;9.162;2023-04-27T12:46:41;9.40;;;5.72;;
25199;SDS011;33094;48.782;9.162;2023-04-27T12:51:34;15.25;;;6.53;;
25199;SDS011;33094;48.782;9.162;2023-04-27T12:54:01;6.45;;;5.40;;
25199;SDS011;33094;48.782;9.162;2023-04-27T12:56:27;10.48;;;5.63;;
25199;SDS011;33094;48.782;9.162;2023-04-27T12:58:53;8.73;;;5.50;;
25199;SDS011;33094;48.782;9.162;2023-04-27T13:01:20;10.00;;;5.45;;
25199;SDS011;33094;48.782;9.162;2023-04-27T13:03:49;7.10;;;5.20;;
25199;SDS011;33094;48.782;9.162;2023-04-27T13:06:16;11.25;;;5.70;;
25199;SDS011;33094;48.782;9.162;2023-04-27T13:08:42;8.40;;;5.10;;
25199;SDS011;33094;48.782;9.162;2023-04-27T13:11:07;10.90;;;5.30;;
25199;SDS011;33094;48.782;9.162;2023-04-27T13:13:33;10.70;;;5.18;;
25199;SDS011;33094;48.782;9.162;2023-04-27T13:16:00;9.05;;;5.90;;
25199;SDS011;33094;48.782;9.162;2023-04-27T13:18:25;9.67;;;6.20;;
25199;SDS011;33094;48.782;9.162;2023-04-27T13:20:51;9.97;;;7.37;;
25199;SDS011;33094;48.782;9.162;2023-04-27T13:23:17;9.13;;;6.30;;
25199;SDS011;33094;48.782;9.162;2023-04-27T13:25:42;11.70;;;6.23;;
25199;SDS011;33094;48.782;9.162;2023-04-27T13:28:08;9.73;;;6.20;;
25199;SDS011;33094;48.782;9.162;2023-04-27T13:30:34;13.23;;;7.35;;
25199;SDS011;33094;48.782;9.162;2023-04-27T13:33:01;9.73;;;6.47;;
25199;SDS011;33094;48.782;9.162;2023-04-27T13:35:28;12.23;;;6.65;;
25199;SDS011;33094;48.782;9.162;2023-04-27T13:37:53;11.87;;;7.03;;
25199;SDS011;33094;48.782;9.162;2023-04-27T13:40:20;10.57;;;7.43;;
25199;SDS011;33094;48.782;9.162;2023-04-27T13:42:46;12.57;;;6.80;;
25199;SDS011;33094;48.782;9.162;2023-04-27T13:45:11;12.35;;;7.35;;
25199;SDS011;33094;48.782;9.162;2023-04-27T13:47:40;10.93;;;5.97;;
25199;SDS011;33094;48.782;9.162;2023-04-27T13:50:07;9.25;;;5.53;;
25199;SDS011;33094;48.782;9.162;2023-04-27T13:52:34;12.85;;;5.70;;
25199;SDS011;33094;48.782;9.162;2023-04-27T13:57:30;12.77;;;6.18;;
25199;SDS011;33094;48.782;9.162;2023-04-27T13:59:56;12.63;;;5.88;;
25199;SDS011;33094;48.782;9.162;2023-04-27T14:02:24;12.50;;;5.47;;
25199;SDS011;33094;48.782;9.162;2023-04-27T14:04:50;10.10;;;5.80;;
25199;SDS011;33094;48.782;9.162;2023-04-27T14:07:17;10.52;;;5.63;;
25199;SDS011;33094;48.782;9.162;2023-04-27T14:09:43;8.88;;;4.88;;
25199;SDS011;33094;48.782;9.162;2023-04-27T14:12:09;11.80;;;5.43;;
25199;SDS011;33094;48.782;9.162;2023-04-27T14:14:35;8.57;;;5.43;;
25199;SDS011;33094;48.782;9.162;2023-04-27T14:17:02;12.05;;;6.30;;
25199;SDS011;33094;48.782;9.162;2023-04-27T14:19:28;12.63;;;5.28;;
25199;SDS011;33094;48.782;9.162;2023-04-27T14:21:53;12.00;;;6.07;;
25199;SDS011;33094;48.782;9.162;2023-04-27T14:24:20;11.10;;;4.85;;
25199;SDS011;33094;48.782;9.162;2023-04-27T14:26:46;7.37;;;4.43;;
25199;SDS011;33094;48.782;9.162;2023-04-27T14:29:12;12.95;;;5.07;;
25199;SDS011;33094;48.782;9.162;2023-04-27T14:31:38;9.40;;;5.33;;
25199;SDS011;33094;48.782;9.162;2023-04-27T14:34:04;9.90;;;4.97;;
25199;SDS011;33094;48.782;9.162;2023-04-27T14:36:31;10.98;;;6.07;;
25199;SDS011;33094;48.782;9.162;2023-04-27T14:38:57;12.30;;;5.57;;
25199;SDS011;33094;48.782;9.162;2023-04-27T14:41:23;12.13;;;6.13;;
25199;SDS011;33094;48.782;9.162;2023-04-27T14:43:49;6.68;;;5.10;;
25199;SDS011;33094;48.782;9.162;2023-04-27T14:46:15;9.03;;;5.10;;
25199;SDS011;33094;48.782;9.162;2023-04-27T14:48:42;11.40;;;4.47;;
25199;SDS011;33094;48.782;9.162;2023-04-27T14:51:08;13.20;;;4.80;;
25199;SDS011;33094;48.782;9.162;2023-04-27T14:53:35;12.23;;;4.65;;
25199;SDS011;33094;48.782;9.162;2023-04-27T14:56:03;9.45;;;4.32;;
25199;SDS011;33094;48.782;9.162;2023-04-27T14:58:29;4.93;;;4.15;;
25199;SDS011;33094;48.782;9.162;2023-04-27T15:00:58;7.85;;;4.20;;
25199;SDS011;33094;48.782;9.162;2023-04-27T15:03:25;6.97;;;3.50;;
25199;SDS011;33094;48.782;9.162;2023-04-27T15:08:17;7.10;;;4.17;;
25199;SDS011;33094;48.782;9.162;2023-04-27T15:10:42;11.15;;;4.93;;
25199;SDS011;33094;48.782;9.162;2023-04-27T15:13:08;10.33;;;4.50;;
25199;SDS011;33094;48.782;9.162;2023-04-27T15:15:34;9.73;;;3.93;;
25199;SDS011;33094;48.782;9.162;2023-04-27T15:17:59;10.43;;;4.53;;
25199;SDS011;33094;48.782;9.162;2023-04-27T15:20:26;7.38;;;4.10;;
25199;SDS011;33094;48.782;9.162;2023-04-27T15:22:51;9.13;;;4.03;;
25199;SDS011;33094;48.782;9.162;2023-04-27T15:25:17;6.63;;;4.10;;
25199;SDS011;33094;48.782;9.162;2023-04-27T15:27:43;8.13;;;4.43;;
25199;SDS011;33094;48.782;9.162;2023-04-27T15:30:08;5.63;;;4.43;;
25199;SDS011;33094;48.782;9.162;2023-04-27T15:32:34;8.47;;;4.33;;
25199;SDS011;33094;48.782;9.162;2023-04-27T15:35:00;7.85;;;5.80;;
25199;SDS011;33094;48.782;9.162;2023-04-27T15:37:26;10.13;;;5.30;;
25199;SDS011;33094;48.782;9.162;2023-04-27T15:42:21;10.88;;;4.65;;
25199;SDS011;33094;48.782;9.162;2023-04-27T15:44:47;8.93;;;5.05;;
25199;SDS011;33094;48.782;9.162;2023-04-27T15:47:13;11.25;;;6.00;;
25199;SDS011;33094;48.782;9.162;2023-04-27T15:49:39;11.07;;;5.07;;
25199;SDS011;33094;48.782;9.162;2023-04-27T15:52:05;8.80;;;5.27;;
25199;SDS011;33094;48.782;9.162;2023-04-27T15:54:31;8.63;;;4.22;;
25199;SDS011;33094;48.782;9.162;2023-04-27T15:56:57;8.40;;;4.68;;
25199;SDS011;33094;48.782;9.162;2023-04-27T15:59:25;11.48;;;4.70;;
25199;SDS011;33094;48.782;9.162;2023-04-27T16:01:51;7.10;;;4.93;;
25199;SDS011;33094;48.782;9.162;2023-04-27T16:04:17;12.73;;;5.57;;
25199;SDS011;33094;48.782;9.162;2023-04-27T16:06:43;7.73;;;5.53;;
25199;SDS011;33094;48.782;9.162;2023-04-27T16:09:10;8.57;;;5.55;;
25199;SDS011;33094;48.782;9.162;2023-04-27T16:11:36;7.45;;;5.07;;
25199;SDS011;33094;48.782;9.162;2023-04-27T16:14:02;10.90;;;5.87;;
25199;SDS011;33094;48.782;9.162;2023-04-27T16:16:28;7.20;;;5.40;;
25199;SDS011;33094;48.782;9.162;2023-04-27T16:18:53;12.38;;;6.97;;
25199;SDS011;33094;48.782;9.162;2023-04-27T16:21:19;13.82;;;5.68;;
25199;SDS011;33094;48.782;9.162;2023-04-27T16:23:45;14.52;;;6.47;;
25199;SDS011;33094;48.782;9.162;2023-04-27T16:26:11;11.02;;;6.32;;
25199;SDS011;33094;48.782;9.162;2023-04-27T16:28:36;9.70;;;6.43;;
25199;SDS011;33094;48.782;9.162;2023-04-27T16:31:02;11.40;;;5.87;;
25199;SDS011;33094;48.782;9.162;2023-04-27T16:33:28;11.55;;;6.00;;
25199;SDS011;33094;48.782;9.162;2023-04-27T16:35:54;9.60;;;5.68;;
25199;SDS011;33094;48.782;9.162;2023-04-27T16:40:46;11.23;;;6.27;;
25199;SDS011;33094;48.782;9.162;2023-04-27T16:43:12;13.52;;;6.20;;
25199;SDS011;33094;48.782;9.162;2023-04-27T16:45:38;10.73;;;5.85;;
25199;SDS011;33094;48.782;9.162;2023-04-27T16:48:06;12.75;;;5.63;;
25199;SDS011;33094;48.782;9.162;2023-04-27T16:50:34;10.50;;;6.30;;
25199;SDS011;33094;48.782;9.162;2023-04-27T16:53:06;14.95;;;6.65;;
25199;SDS011;33094;48.782;9.162;2023-04-27T16:55:33;11.95;;;6.25;;
25199;SDS011;33094;48.782;9.162;2023-04-27T16:57:59;9.82;;;6.60;;
25199;SDS011;33094;48.782;9.162;2023-04-27T17:00:25;13.60;;;6.30;;
25199;SDS011;33094;48.782;9.162;2023-04-27T17:02:51;9.20;;;6.13;;
25199;SDS011;33094;48.782;9.162;2023-04-27T17:05:17;12.23;;;6.30;;
25199;SDS011;33094;48.782;9.162;2023-04-27T17:07:42;9.85;;;5.93;;
25199;SDS011;33094;48.782;9.162;2023-04-27T17:10:08;11.73;;;7.03;;
25199;SDS011;33094;48.782;9.162;2023-04-27T17:12:34;10.20;;;5.68;;
25199;SDS011;33094;48.782;9.162;2023-04-27T17:15:01;11.43;;;6.47;;